createdAt,value
2018-10-06T00:00:24.153Z,9.27
2018-10-06T00:02:52.812Z,9.53
2018-10-06T00:05:21.401Z,9.13
2018-10-06T00:07:49.954Z,9.70
2018-10-06T00:10:18.488Z,9.40
2018-10-06T00:12:46.993Z,8.73
2018-10-06T00:15:15.531Z,8.80
2018-10-06T00:17:44.025Z,9.23
2018-10-06T00:20:14.126Z,9.17
2018-10-06T00:22:42.646Z,9.80
2018-10-06T00:25:12.111Z,8.63
2018-10-06T00:27:40.634Z,9.60
2018-10-06T00:30:09.372Z,9.80
2018-10-06T00:32:37.922Z,10.60
2018-10-06T00:35:06.463Z,11.47
2018-10-06T00:37:35.017Z,10.90
2018-10-06T00:40:05.121Z,10.97
2018-10-06T00:42:33.583Z,11.43
2018-10-06T00:45:04.534Z,10.77
2018-10-06T00:47:33.050Z,10.57
2018-10-06T00:50:03.430Z,12.00
2018-10-06T00:52:31.946Z,12.47
2018-10-06T00:55:00.505Z,12.20
2018-10-06T00:57:29.051Z,10.77
2018-10-06T00:59:57.589Z,11.03
2018-10-06T01:02:26.202Z,11.00
2018-10-06T01:04:54.737Z,12.23
2018-10-06T01:07:23.662Z,13.00
2018-10-06T01:09:52.565Z,13.00
2018-10-06T01:12:21.384Z,11.87
2018-10-06T01:14:49.883Z,12.30
2018-10-06T01:17:18.369Z,12.20
2018-10-06T01:19:46.905Z,12.77
2018-10-06T01:22:18.241Z,13.37
2018-10-06T01:24:46.791Z,13.00
2018-10-06T01:27:15.533Z,14.17
2018-10-06T01:29:44.031Z,13.83
2018-10-06T01:32:12.586Z,13.97
2018-10-06T01:34:41.128Z,13.20
2018-10-06T01:37:09.647Z,13.43
2018-10-06T01:39:38.219Z,14.20
2018-10-06T01:42:06.824Z,12.83
2018-10-06T01:44:36.329Z,14.57
2018-10-06T01:47:05.215Z,14.40
2018-10-06T01:49:33.736Z,13.97
2018-10-06T01:52:03.691Z,13.70
2018-10-06T01:54:32.207Z,14.03
2018-10-06T01:57:00.972Z,13.33
2018-10-06T01:59:29.499Z,14.90
2018-10-06T02:01:58.008Z,13.90
2018-10-06T02:04:26.868Z,14.70
2018-10-06T02:06:56.523Z,16.43
2018-10-06T02:09:25.132Z,16.47
2018-10-06T02:11:53.671Z,18.97
2018-10-06T02:14:22.182Z,18.17
2018-10-06T02:16:50.760Z,18.47
2018-10-06T02:19:19.262Z,17.17
2018-10-06T02:21:47.831Z,17.23
2018-10-06T02:24:16.323Z,18.60
2018-10-06T02:26:44.863Z,16.90
2018-10-06T02:29:13.416Z,17.63
2018-10-06T02:31:41.952Z,16.37
2018-10-06T02:34:10.479Z,18.40
2018-10-06T02:36:39.267Z,17.77
2018-10-06T02:39:07.895Z,18.00
2018-10-06T02:41:36.772Z,17.57
2018-10-06T02:44:05.271Z,16.47
2018-10-06T02:46:33.808Z,17.27
2018-10-06T02:49:03.711Z,16.40
2018-10-06T02:51:32.238Z,16.20
2018-10-06T02:54:03.189Z,15.93
2018-10-06T02:56:31.690Z,15.97
2018-10-06T02:59:00.274Z,16.07
2018-10-06T03:01:29.097Z,15.60
2018-10-06T03:03:57.594Z,15.20
2018-10-06T03:06:26.111Z,15.43
2018-10-06T03:08:54.629Z,14.50
2018-10-06T03:11:23.189Z,15.40
2018-10-06T03:13:51.684Z,15.57
2018-10-06T03:16:20.188Z,15.77
2018-10-06T03:18:48.807Z,15.33
2018-10-06T03:21:17.763Z,16.30
2018-10-06T03:23:46.354Z,16.13
2018-10-06T03:26:14.865Z,17.23
2018-10-06T03:28:43.487Z,17.27
2018-10-06T03:31:11.974Z,17.07
2018-10-06T03:33:40.774Z,17.87
2018-10-06T03:36:09.319Z,19.40
2018-10-06T03:38:37.818Z,19.23
2018-10-06T03:41:06.402Z,17.70
2018-10-06T03:43:34.880Z,16.50
2018-10-06T03:46:04.414Z,15.57
2018-10-06T03:48:33.028Z,17.23
2018-10-06T03:51:03.088Z,17.13
2018-10-06T03:53:31.716Z,17.53
2018-10-06T03:56:00.213Z,16.90
2018-10-06T03:58:28.793Z,17.43
2018-10-06T04:00:57.323Z,17.00
2018-10-06T04:03:25.813Z,16.53
2018-10-06T04:05:54.349Z,14.50
2018-10-06T04:08:22.911Z,14.37
2018-10-06T04:10:51.521Z,14.73
2018-10-06T04:13:20.056Z,14.17
2018-10-06T04:15:48.564Z,13.90
2018-10-06T04:18:17.066Z,14.70
2018-10-06T04:20:45.865Z,15.83
2018-10-06T04:23:14.442Z,14.73
2018-10-06T04:25:43.174Z,14.30
2018-10-06T04:28:12.002Z,14.97
2018-10-06T04:30:40.509Z,14.17
2018-10-06T04:33:09.078Z,13.63
2018-10-06T04:35:37.653Z,13.93
2018-10-06T04:38:07.778Z,12.73
2018-10-06T04:40:36.348Z,14.10
2018-10-06T04:43:05.157Z,13.03
2018-10-06T04:45:33.690Z,12.73
2018-10-06T04:48:03.734Z,12.73
2018-10-06T04:50:32.647Z,11.90
2018-10-06T04:53:03.294Z,13.50
2018-10-06T04:55:31.781Z,13.53
2018-10-06T04:58:02.897Z,13.97
2018-10-06T05:00:31.776Z,13.87
2018-10-06T05:03:00.258Z,14.50
2018-10-06T05:05:28.781Z,15.03
2018-10-06T05:07:57.353Z,15.47
2018-10-06T05:10:25.875Z,15.50
2018-10-06T05:12:54.411Z,14.47
2018-10-06T05:15:23.004Z,15.00
2018-10-06T05:17:51.507Z,14.13
2018-10-06T05:20:20.091Z,14.30
2018-10-06T05:22:48.783Z,14.87
2018-10-06T05:25:17.353Z,13.70
2018-10-06T05:27:45.853Z,14.03
2018-10-06T05:30:15.769Z,13.87
2018-10-06T05:32:44.302Z,13.40
2018-10-06T05:35:12.808Z,12.80
2018-10-06T05:37:41.581Z,13.70
2018-10-06T05:40:10.104Z,13.00
2018-10-06T05:42:38.656Z,12.57
2018-10-06T05:45:07.243Z,12.90
2018-10-06T05:47:35.793Z,12.37
2018-10-06T05:50:05.563Z,13.20
2018-10-06T05:52:34.101Z,13.27
2018-10-06T05:55:03.609Z,13.73
2018-10-06T05:57:32.118Z,13.77
2018-10-06T06:00:00.651Z,13.07
2018-10-06T06:02:29.258Z,14.50
2018-10-06T06:04:57.808Z,14.23
2018-10-06T06:07:26.417Z,13.90
2018-10-06T06:09:54.945Z,13.83
2018-10-06T06:12:23.485Z,14.33
2018-10-06T06:14:52.136Z,15.63
2018-10-06T06:17:20.646Z,14.67
2018-10-06T06:19:49.214Z,14.57
2018-10-06T06:22:17.727Z,14.37
2018-10-06T06:24:46.245Z,15.47
2018-10-06T06:27:14.798Z,15.83
2018-10-06T06:29:43.469Z,15.27
2018-10-06T06:32:11.990Z,16.57
2018-10-06T06:34:40.513Z,16.40
2018-10-06T06:37:09.382Z,15.63
2018-10-06T06:39:37.877Z,17.53
2018-10-06T06:42:06.575Z,17.17
2018-10-06T06:44:35.264Z,17.77
2018-10-06T06:47:06.461Z,17.93
2018-10-06T06:49:35.065Z,17.83
2018-10-06T06:52:04.673Z,20.50
2018-10-06T06:54:33.501Z,20.13
2018-10-06T06:57:03.277Z,20.80
2018-10-06T06:59:31.786Z,20.37
2018-10-06T07:02:00.405Z,21.73
2018-10-06T07:04:28.969Z,21.67
2018-10-06T07:06:57.739Z,21.97
2018-10-06T07:09:26.230Z,22.47
2018-10-06T07:11:54.780Z,25.27
2018-10-06T07:14:23.337Z,27.23
2018-10-06T07:16:51.964Z,27.90
2018-10-06T07:19:20.801Z,28.40
2018-10-06T07:21:49.345Z,28.17
2018-10-06T07:24:17.902Z,28.27
2018-10-06T07:26:46.385Z,30.43
2018-10-06T07:29:14.904Z,30.80
2018-10-06T07:31:43.525Z,31.07
2018-10-06T07:34:12.139Z,30.80
2018-10-06T07:36:40.648Z,32.83
2018-10-06T07:39:09.153Z,31.13
2018-10-06T07:41:37.648Z,32.30
2018-10-06T07:44:06.223Z,30.53
2018-10-06T07:46:34.831Z,30.97
2018-10-06T07:49:04.573Z,30.33
2018-10-06T07:51:33.119Z,29.97
2018-10-06T07:54:02.766Z,29.90
2018-10-06T07:56:31.319Z,28.77
2018-10-06T07:58:59.815Z,28.67
2018-10-06T08:01:28.328Z,28.90
2018-10-06T08:03:56.853Z,27.53
2018-10-06T08:06:25.415Z,26.43
2018-10-06T08:08:53.926Z,26.87
2018-10-06T08:11:22.431Z,26.47
2018-10-06T08:13:51.130Z,26.07
2018-10-06T08:16:20.016Z,26.30
2018-10-06T08:18:48.568Z,25.00
2018-10-06T08:21:18.283Z,25.27
2018-10-06T08:23:46.848Z,26.50
2018-10-06T08:26:16.326Z,25.90
2018-10-06T08:28:44.877Z,26.50
2018-10-06T08:31:13.423Z,25.30
2018-10-06T08:33:41.948Z,25.90
2018-10-06T08:36:10.509Z,26.10
2018-10-06T08:38:39.080Z,24.70
2018-10-06T08:41:07.578Z,25.30
2018-10-06T08:43:36.364Z,24.90
2018-10-06T08:46:05.703Z,23.87
2018-10-06T08:48:34.278Z,23.27
2018-10-06T08:51:04.122Z,23.80
2018-10-06T08:53:32.651Z,22.03
2018-10-06T08:56:03.410Z,21.43
2018-10-06T08:58:31.831Z,21.10
2018-10-06T09:01:00.474Z,21.10
2018-10-06T09:03:28.977Z,19.70
2018-10-06T09:05:57.510Z,19.80
2018-10-06T09:08:26.238Z,18.80
2018-10-06T09:10:54.912Z,19.60
2018-10-06T09:13:24.158Z,20.33
2018-10-06T09:15:52.823Z,19.47
2018-10-06T09:18:21.312Z,19.80
2018-10-06T09:20:49.955Z,19.37
2018-10-06T09:23:18.444Z,19.87
2018-10-06T09:25:46.949Z,18.03
2018-10-06T09:28:15.512Z,18.57
2018-10-06T09:30:44.012Z,16.23
2018-10-06T09:33:12.692Z,15.47
2018-10-06T09:35:41.321Z,15.57
2018-10-06T09:38:09.924Z,16.40
2018-10-06T09:40:39.006Z,16.10
2018-10-06T09:43:07.472Z,15.87
2018-10-06T09:45:36.152Z,15.73
2018-10-06T09:48:06.155Z,15.40
2018-10-06T09:50:34.655Z,16.63
2018-10-06T09:53:05.504Z,15.33
2018-10-06T09:55:35.289Z,15.13
2018-10-06T09:58:05.742Z,16.10
2018-10-06T10:00:39.477Z,14.90
2018-10-06T10:03:13.206Z,14.57
2018-10-06T10:05:48.257Z,15.50
2018-10-06T10:08:17.229Z,14.87
2018-10-06T10:10:46.249Z,14.87
2018-10-06T10:13:14.774Z,14.77
2018-10-06T10:15:43.383Z,14.80
2018-10-06T10:18:12.290Z,14.37
2018-10-06T10:20:41.401Z,14.57
2018-10-06T10:23:10.273Z,14.07
2018-10-06T10:25:39.236Z,12.57
2018-10-06T10:28:07.026Z,13.70
2018-10-06T10:30:36.018Z,13.23
2018-10-06T10:33:06.041Z,14.07
2018-10-06T10:35:34.553Z,14.10
2018-10-06T10:38:05.472Z,13.30
2018-10-06T10:40:34.027Z,12.30
2018-10-06T10:43:05.766Z,12.53
2018-10-06T10:45:34.572Z,11.87
2018-10-06T10:48:04.784Z,11.33
2018-10-06T10:50:33.943Z,11.07
2018-10-06T10:53:04.248Z,10.27
2018-10-06T10:55:32.883Z,9.83
2018-10-06T10:58:03.949Z,9.40
2018-10-06T11:00:32.793Z,9.57
2018-10-06T11:03:02.994Z,8.83
2018-10-06T11:05:31.520Z,8.40
2018-10-06T11:08:00.053Z,8.30
2018-10-06T11:10:28.649Z,7.90
2018-10-06T11:12:57.138Z,8.47
2018-10-06T11:15:25.659Z,8.20
2018-10-06T11:17:54.183Z,8.70
2018-10-06T11:20:23.095Z,7.47
2018-10-06T11:22:51.839Z,7.77
2018-10-06T11:25:20.398Z,7.43
2018-10-06T11:27:48.984Z,6.93
2018-10-06T11:30:17.480Z,6.47
2018-10-06T11:32:46.033Z,6.97
2018-10-06T11:35:14.706Z,6.50
2018-10-06T11:37:43.453Z,6.60
2018-10-06T11:40:12.205Z,6.70
2018-10-06T11:42:40.712Z,6.27
2018-10-06T11:45:09.542Z,6.03
2018-10-06T11:47:38.249Z,7.47
2018-10-06T11:50:06.916Z,5.73
2018-10-06T11:52:35.588Z,6.13
2018-10-06T11:55:06.141Z,5.70
2018-10-06T11:57:34.677Z,6.17
2018-10-06T12:00:05.272Z,5.80
2018-10-06T12:02:34.268Z,5.30
2018-10-06T12:05:04.621Z,4.60
2018-10-06T12:07:33.162Z,5.10
2018-10-06T12:10:08.340Z,4.80
2018-10-06T12:12:36.880Z,5.30
2018-10-06T12:15:06.199Z,4.73
2018-10-06T12:17:34.824Z,4.63
2018-10-06T12:20:05.160Z,4.97
2018-10-06T12:22:33.704Z,4.53
2018-10-06T12:25:04.580Z,4.80
2018-10-06T12:27:33.154Z,5.40
2018-10-06T12:30:03.748Z,4.37
2018-10-06T12:32:32.297Z,4.37
2018-10-06T12:35:00.869Z,4.00
2018-10-06T12:37:29.772Z,4.20
2018-10-06T12:39:58.456Z,3.97
2018-10-06T12:42:27.029Z,4.20
2018-10-06T12:44:55.854Z,4.27
2018-10-06T12:47:24.493Z,4.33
2018-10-06T12:49:53.073Z,4.47
2018-10-06T12:52:21.631Z,4.60
2018-10-06T12:54:50.267Z,4.70
2018-10-06T12:57:18.836Z,4.27
2018-10-06T12:59:47.360Z,4.67
2018-10-06T13:02:16.096Z,4.33
2018-10-06T13:04:44.613Z,4.60
2018-10-06T13:07:13.109Z,4.60
2018-10-06T13:09:41.646Z,4.53
2018-10-06T13:12:10.534Z,4.53
2018-10-06T13:14:39.080Z,4.40
2018-10-06T13:17:07.636Z,4.03
2018-10-06T13:19:36.169Z,3.67
2018-10-06T13:22:05.737Z,3.80
2018-10-06T13:24:34.320Z,4.50
2018-10-06T13:27:05.211Z,4.10
2018-10-06T13:29:33.729Z,4.33
2018-10-06T13:32:03.754Z,4.57
2018-10-06T13:34:32.411Z,4.33
2018-10-06T13:37:03.735Z,4.93
2018-10-06T13:39:34.294Z,4.40
2018-10-06T13:42:04.638Z,4.40
2018-10-06T13:44:33.481Z,4.23
2018-10-06T13:47:04.420Z,4.17
2018-10-06T13:49:33.075Z,3.80
2018-10-06T13:52:03.646Z,4.20
2018-10-06T13:54:32.224Z,4.87
2018-10-06T13:57:00.877Z,4.80
2018-10-06T13:59:29.690Z,4.93
2018-10-06T14:01:58.322Z,5.00
2018-10-06T14:04:26.870Z,5.03
2018-10-06T14:06:55.387Z,5.10
2018-10-06T14:09:23.940Z,5.33
2018-10-06T14:11:52.458Z,4.90
2018-10-06T14:14:20.963Z,5.30
2018-10-06T14:16:49.841Z,5.57
2018-10-06T14:19:18.379Z,5.20
2018-10-06T14:21:46.932Z,5.00
2018-10-06T14:24:15.771Z,5.00
2018-10-06T14:26:44.290Z,4.80
2018-10-06T14:29:12.824Z,5.07
2018-10-06T14:31:41.448Z,6.93
2018-10-06T14:34:10.417Z,5.50
2018-10-06T14:36:39.217Z,4.97
2018-10-06T14:39:10.505Z,4.60
2018-10-06T14:41:39.042Z,5.00
2018-10-06T14:44:07.636Z,6.10
2018-10-06T14:46:36.193Z,5.47
2018-10-06T14:49:06.135Z,5.40
2018-10-06T14:51:34.704Z,5.10
2018-10-06T14:54:05.237Z,5.80
2018-10-06T14:56:33.781Z,5.20
2018-10-06T14:59:04.392Z,5.73
2018-10-06T15:01:32.932Z,6.30
2018-10-06T15:04:03.172Z,5.57
2018-10-06T15:06:31.865Z,5.33
2018-10-06T15:09:00.763Z,5.37
2018-10-06T15:11:29.299Z,5.20
2018-10-06T15:13:57.854Z,5.90
2018-10-06T15:16:26.375Z,5.80
2018-10-06T15:18:54.965Z,5.43
2018-10-06T15:21:23.700Z,5.70
2018-10-06T15:23:52.206Z,5.93
2018-10-06T15:26:20.788Z,6.83
2018-10-06T15:28:49.425Z,6.20
2018-10-06T15:31:17.943Z,6.07
2018-10-06T15:33:46.549Z,6.60
2018-10-06T15:36:15.091Z,7.27
2018-10-06T15:38:43.690Z,6.47
2018-10-06T15:41:12.233Z,6.10
2018-10-06T15:43:41.088Z,6.90
2018-10-06T15:46:09.801Z,6.80
2018-10-06T15:48:38.355Z,6.77
2018-10-06T15:51:07.059Z,7.17
2018-10-06T15:53:35.552Z,6.90
2018-10-06T15:56:05.160Z,6.60
2018-10-06T15:58:33.719Z,7.33
2018-10-06T16:01:03.878Z,7.60
2018-10-06T16:03:32.496Z,7.23
2018-10-06T16:06:03.498Z,7.07
2018-10-06T16:08:32.134Z,7.07
2018-10-06T16:11:03.223Z,7.23
2018-10-06T16:13:31.817Z,6.67
2018-10-06T16:16:00.834Z,7.30
2018-10-06T16:18:29.340Z,7.23
2018-10-06T16:20:57.947Z,7.00
2018-10-06T16:23:26.465Z,7.87
2018-10-06T16:25:55.004Z,7.30
2018-10-06T16:28:23.562Z,7.30
2018-10-06T16:30:52.156Z,7.63
2018-10-06T16:33:21.086Z,7.53
2018-10-06T16:35:49.601Z,7.53
2018-10-06T16:38:18.090Z,8.27
2018-10-06T16:40:46.652Z,8.57
2018-10-06T16:43:15.162Z,8.67
2018-10-06T16:45:43.705Z,9.27
2018-10-06T16:48:12.510Z,8.80
2018-10-06T16:50:41.350Z,9.57
2018-10-06T16:53:10.077Z,9.50
2018-10-06T16:55:38.704Z,9.97
2018-10-06T16:58:08.645Z,10.97
2018-10-06T17:00:37.300Z,9.93
2018-10-06T17:03:07.144Z,9.50
2018-10-06T17:05:35.671Z,10.00
2018-10-06T17:08:06.420Z,9.80
2018-10-06T17:10:34.983Z,11.37
2018-10-06T17:13:05.509Z,11.40
2018-10-06T17:15:34.127Z,11.70
2018-10-06T17:18:03.824Z,13.97
2018-10-06T17:20:32.802Z,14.33
2018-10-06T17:23:02.865Z,16.10
2018-10-06T17:25:31.385Z,18.50
2018-10-06T17:28:00.232Z,17.90
2018-10-06T17:30:28.721Z,19.53
2018-10-06T17:32:57.212Z,19.43
2018-10-06T17:35:25.777Z,19.03
2018-10-06T17:37:54.336Z,18.97
2018-10-06T17:40:23.237Z,19.77
2018-10-06T17:42:51.787Z,19.53
2018-10-06T17:45:20.328Z,20.50
2018-10-06T17:47:49.183Z,21.07
2018-10-06T17:50:17.872Z,21.10
2018-10-06T17:52:46.242Z,22.20
2018-10-06T17:55:14.792Z,23.30
2018-10-06T17:57:43.310Z,23.63
2018-10-06T18:00:11.873Z,23.80
2018-10-06T18:02:40.407Z,26.30
2018-10-06T18:05:08.919Z,25.63
2018-10-06T18:07:37.764Z,25.33
2018-10-06T18:10:06.317Z,24.77
2018-10-06T18:12:34.875Z,24.83
2018-10-06T18:15:05.898Z,23.80
2018-10-06T18:17:34.434Z,25.60
2018-10-06T18:20:05.069Z,24.67
2018-10-06T18:22:33.815Z,24.57
2018-10-06T18:25:04.712Z,26.43
2018-10-06T18:27:33.248Z,24.57
2018-10-06T18:30:02.739Z,25.93
2018-10-06T18:32:31.246Z,26.70
2018-10-06T18:34:59.966Z,28.40
2018-10-06T18:37:28.496Z,25.67
2018-10-06T18:39:57.040Z,26.70
2018-10-06T18:42:25.538Z,25.67
2018-10-06T18:44:54.041Z,26.33
2018-10-06T18:47:23.806Z,25.83
2018-10-06T18:49:52.437Z,27.47
2018-10-06T18:52:20.972Z,27.67
2018-10-06T18:54:49.538Z,29.67
2018-10-06T18:57:18.062Z,33.07
2018-10-06T18:59:46.573Z,33.37
2018-10-06T19:02:15.116Z,36.43
2018-10-06T19:04:43.960Z,36.67
2018-10-06T19:07:12.481Z,37.57
2018-10-06T19:09:40.977Z,39.47
2018-10-06T19:12:09.537Z,42.40
2018-10-06T19:14:38.186Z,42.20
2018-10-06T19:17:07.194Z,41.00
2018-10-06T19:19:35.702Z,41.60
2018-10-06T19:22:05.502Z,43.43
2018-10-06T19:24:34.310Z,39.93
2018-10-06T19:27:04.533Z,39.00
2018-10-06T19:29:33.145Z,40.20
2018-10-06T19:32:02.867Z,40.57
2018-10-06T19:34:31.387Z,41.83
2018-10-06T19:36:59.969Z,40.77
2018-10-06T19:39:28.504Z,43.27
2018-10-06T19:41:57.214Z,43.33
2018-10-06T19:44:25.790Z,43.50
2018-10-06T19:46:54.363Z,43.90
2018-10-06T19:49:22.856Z,46.97
2018-10-06T19:51:51.380Z,49.80
2018-10-06T19:54:19.980Z,50.57
2018-10-06T19:56:48.537Z,52.23
2018-10-06T19:59:17.153Z,51.30
2018-10-06T20:01:45.683Z,50.37
2018-10-06T20:04:14.383Z,53.00
2018-10-06T20:06:42.927Z,54.90
2018-10-06T20:09:11.912Z,58.43
2018-10-06T20:11:40.469Z,57.33
2018-10-06T20:14:09.219Z,56.77
2018-10-06T20:16:37.750Z,57.50
2018-10-06T20:19:06.366Z,58.20
2018-10-06T20:21:34.941Z,59.07
2018-10-06T20:24:07.486Z,59.73
2018-10-06T20:26:36.813Z,61.07
2018-10-06T20:29:06.475Z,59.17
2018-10-06T20:31:34.990Z,59.00
2018-10-06T20:34:05.958Z,60.90
2018-10-06T20:36:34.485Z,60.20
2018-10-06T20:39:08.361Z,59.53
2018-10-06T20:41:36.878Z,61.17
2018-10-06T20:44:05.475Z,60.23
2018-10-06T20:46:34.361Z,59.30
2018-10-06T20:49:04.987Z,61.80
2018-10-06T20:51:33.498Z,60.87
2018-10-06T20:54:07.017Z,61.37
2018-10-06T20:56:36.100Z,58.17
2018-10-06T20:59:06.471Z,62.27
2018-10-06T21:01:35.064Z,61.10
2018-10-06T21:04:06.072Z,65.70
2018-10-06T21:06:34.596Z,72.67
2018-10-06T21:09:06.128Z,78.23
2018-10-06T21:11:34.620Z,83.13
2018-10-06T21:14:04.827Z,89.37
2018-10-06T21:16:33.533Z,97.40
2018-10-06T21:19:04.873Z,98.23
2018-10-06T21:21:33.629Z,99.13
2018-10-06T21:24:03.410Z,99.13
2018-10-06T21:26:31.954Z,101.60
2018-10-06T21:29:00.537Z,98.20
2018-10-06T21:31:29.179Z,99.20
2018-10-06T21:33:57.655Z,104.07
2018-10-06T21:36:26.180Z,110.63
2018-10-06T21:38:55.012Z,115.27
2018-10-06T21:41:23.562Z,115.07
2018-10-06T21:43:52.242Z,115.70
2018-10-06T21:46:20.766Z,122.83
2018-10-06T21:48:49.326Z,125.83
2018-10-06T21:51:17.874Z,129.77
2018-10-06T21:53:46.388Z,131.10
2018-10-06T21:56:14.954Z,130.47
2018-10-06T21:58:43.985Z,130.67
2018-10-06T22:01:13.898Z,132.33
2018-10-06T22:03:43.233Z,123.60
2018-10-06T22:06:11.936Z,118.43
2018-10-06T22:08:40.504Z,120.53
2018-10-06T22:11:09.413Z,118.73
2018-10-06T22:13:37.958Z,119.87
2018-10-06T22:16:08.214Z,121.67
2018-10-06T22:18:36.814Z,121.60
2018-10-06T22:21:07.311Z,122.63
2018-10-06T22:23:35.861Z,124.30
2018-10-06T22:26:06.204Z,129.90
2018-10-06T22:28:34.733Z,126.27
2018-10-06T22:31:08.413Z,128.70
2018-10-06T22:33:36.944Z,124.37
2018-10-06T22:36:05.448Z,128.20
2018-10-06T22:38:33.997Z,127.53
2018-10-06T22:41:03.805Z,129.13
2018-10-06T22:43:32.405Z,126.93
2018-10-06T22:46:00.907Z,128.83
2018-10-06T22:48:29.429Z,125.70
2018-10-06T22:50:58.079Z,129.00
2018-10-06T22:53:26.658Z,125.67
2018-10-06T22:55:55.311Z,118.93
2018-10-06T22:58:23.909Z,116.90
2018-10-06T23:00:52.798Z,118.20
2018-10-06T23:03:21.425Z,114.73
2018-10-06T23:05:50.009Z,113.20
2018-10-06T23:08:18.544Z,105.93
2018-10-06T23:10:47.173Z,105.30
2018-10-06T23:13:15.757Z,96.70
2018-10-06T23:15:44.310Z,93.00
2018-10-06T23:18:12.829Z,88.83
2018-10-06T23:20:41.475Z,80.80
2018-10-06T23:23:10.086Z,71.43
2018-10-06T23:25:38.741Z,68.70
2018-10-06T23:28:09.362Z,68.70
2018-10-06T23:30:38.125Z,56.80
2018-10-06T23:33:06.891Z,53.63
2018-10-06T23:35:35.413Z,48.77
2018-10-06T23:38:07.144Z,46.10
2018-10-06T23:40:35.624Z,39.33
2018-10-06T23:43:05.488Z,34.87
2018-10-06T23:45:34.054Z,35.37
2018-10-06T23:48:03.934Z,33.47
2018-10-06T23:50:32.588Z,33.70
2018-10-06T23:53:02.941Z,32.37
2018-10-06T23:55:31.453Z,29.83
2018-10-06T23:57:59.970Z,29.10
